createdAt,value
2023-04-04T00:00:18.667Z,0.00
2023-04-04T00:01:18.643Z,0.00
2023-04-04T00:03:22.821Z,0.00
2023-04-04T00:04:22.722Z,0.00
2023-04-04T00:06:15.710Z,0.00
2023-04-04T00:07:15.706Z,0.00
2023-04-04T00:09:19.697Z,0.00
2023-04-04T00:10:19.684Z,0.00
2023-04-04T00:12:25.872Z,0.00
2023-04-04T00:13:23.649Z,0.00
2023-04-04T00:15:27.645Z,0.00
2023-04-04T00:16:27.669Z,0.00
2023-04-04T00:18:31.597Z,0.00
2023-04-04T00:19:31.624Z,0.00
2023-04-04T00:21:24.897Z,0.00
2023-04-04T00:22:24.704Z,0.00
2023-04-04T00:24:28.662Z,0.00
2023-04-04T00:25:28.746Z,0.00
2023-04-04T00:27:32.721Z,0.00
2023-04-04T00:28:32.693Z,0.00
2023-04-04T00:30:36.690Z,0.00
2023-04-04T00:31:36.694Z,0.00
2023-04-04T00:33:41.728Z,0.00
2023-04-04T00:34:40.628Z,0.00
2023-04-04T00:36:33.562Z,0.00
2023-04-04T00:37:33.550Z,0.00
2023-04-04T00:38:33.544Z,0.00
2023-04-04T00:39:33.565Z,0.00
2023-04-04T00:40:33.571Z,0.00
2023-04-04T00:41:33.524Z,0.00
2023-04-04T00:42:33.507Z,0.00
2023-04-04T00:43:33.510Z,0.00
2023-04-04T00:44:33.475Z,0.00
2023-04-04T00:45:33.536Z,0.00
2023-04-04T00:46:33.530Z,0.00
2023-04-04T00:47:33.462Z,0.00
2023-04-04T00:48:33.440Z,0.00
2023-04-04T00:49:33.448Z,0.00
2023-04-04T00:50:33.436Z,0.00
2023-04-04T00:51:33.411Z,0.00
2023-04-04T00:52:33.416Z,0.00
2023-04-04T00:53:33.391Z,0.00
2023-04-04T00:54:33.381Z,0.00
2023-04-04T00:55:33.384Z,0.00
2023-04-04T00:56:33.396Z,0.00
2023-04-04T00:57:33.368Z,0.00
2023-04-04T00:58:33.382Z,0.00
2023-04-04T00:59:33.466Z,0.00
2023-04-04T01:00:33.326Z,0.00
2023-04-04T01:01:33.359Z,0.00
2023-04-04T01:02:33.376Z,0.00
2023-04-04T01:03:33.303Z,0.00
2023-04-04T01:04:33.330Z,0.00
2023-04-04T01:05:33.299Z,0.00
2023-04-04T01:06:33.304Z,0.00
2023-04-04T01:07:34.754Z,0.00
2023-04-04T01:08:33.267Z,0.00
2023-04-04T01:09:33.242Z,0.00
2023-04-04T01:10:33.245Z,0.00
2023-04-04T01:11:33.257Z,0.00
2023-04-04T01:12:33.238Z,0.00
2023-04-04T01:13:33.231Z,0.00
2023-04-04T01:14:33.207Z,0.00
2023-04-04T01:15:33.221Z,0.00
2023-04-04T01:16:33.271Z,0.00
2023-04-04T01:17:33.199Z,0.00
2023-04-04T01:18:33.174Z,0.00
2023-04-04T01:19:33.166Z,0.00
2023-04-04T01:20:33.320Z,0.00
2023-04-04T01:21:33.134Z,0.00
2023-04-04T01:22:33.149Z,0.00
2023-04-04T01:23:33.144Z,0.00
2023-04-04T01:24:33.129Z,0.00
2023-04-04T01:25:33.100Z,0.00
2023-04-04T01:26:33.082Z,0.00
2023-04-04T01:27:33.092Z,0.00
2023-04-04T01:28:33.116Z,0.00
2023-04-04T01:29:33.098Z,0.00
2023-04-04T01:30:33.098Z,0.00
2023-04-04T01:31:33.072Z,0.00
2023-04-04T01:32:33.041Z,0.00
2023-04-04T01:33:33.071Z,0.00
2023-04-04T01:34:33.016Z,0.00
2023-04-04T01:35:33.044Z,0.00
2023-04-04T01:36:33.005Z,0.00
2023-04-04T01:37:32.992Z,0.00
2023-04-04T01:38:32.972Z,0.00
2023-04-04T01:39:33.046Z,0.00
2023-04-04T01:40:32.957Z,0.00
2023-04-04T01:41:32.963Z,0.00
2023-04-04T01:42:32.957Z,0.00
2023-04-04T01:43:32.941Z,0.00
2023-04-04T01:44:32.926Z,0.00
2023-04-04T01:45:32.952Z,0.00
2023-04-04T01:46:32.971Z,0.00
2023-04-04T01:47:32.934Z,0.00
2023-04-04T01:48:32.903Z,0.00
2023-04-04T01:49:32.902Z,0.00
2023-04-04T01:50:32.892Z,0.00
2023-04-04T01:51:32.866Z,0.00
2023-04-04T01:52:32.856Z,0.00
2023-04-04T01:53:32.852Z,0.00
2023-04-04T01:54:32.833Z,0.00
2023-04-04T01:55:32.833Z,0.00
2023-04-04T01:56:32.844Z,0.00
2023-04-04T01:57:32.810Z,0.00
2023-04-04T01:58:32.831Z,0.00
2023-04-04T01:59:32.840Z,0.00
2023-04-04T02:00:32.782Z,0.00
2023-04-04T02:01:33.024Z,0.00
2023-04-04T02:02:32.800Z,0.00
2023-04-04T02:03:32.820Z,0.00
2023-04-04T02:04:32.777Z,0.00
2023-04-04T02:05:32.734Z,0.00
2023-04-04T02:06:32.715Z,0.00
2023-04-04T02:07:32.711Z,0.00
2023-04-04T02:08:32.698Z,0.00
2023-04-04T02:09:32.699Z,0.00
2023-04-04T02:10:32.734Z,0.00
2023-04-04T02:11:32.686Z,0.00
2023-04-04T02:12:32.660Z,0.00
2023-04-04T02:13:32.663Z,0.00
2023-04-04T02:14:32.659Z,0.00
2023-04-04T02:15:32.652Z,0.00
2023-04-04T02:16:32.654Z,0.00
2023-04-04T02:17:32.675Z,0.00
2023-04-04T02:18:32.616Z,0.00
2023-04-04T02:19:32.592Z,0.00
2023-04-04T02:20:32.600Z,0.00
2023-04-04T02:21:32.591Z,0.00
2023-04-04T02:22:32.572Z,0.00
2023-04-04T02:23:32.575Z,0.00
2023-04-04T02:24:32.560Z,0.00
2023-04-04T02:25:32.577Z,0.00
2023-04-04T02:26:32.543Z,0.00
2023-04-04T02:27:32.561Z,0.00
2023-04-04T02:28:32.536Z,0.00
2023-04-04T02:29:32.504Z,0.00
2023-04-04T02:30:32.506Z,0.00
2023-04-04T02:31:32.539Z,0.00
2023-04-04T02:32:32.516Z,0.00
2023-04-04T02:33:32.477Z,0.00
2023-04-04T02:34:32.448Z,0.00
2023-04-04T02:35:32.512Z,0.00
2023-04-04T02:36:32.438Z,0.00
2023-04-04T02:37:32.417Z,0.00
2023-04-04T02:38:32.447Z,0.00
2023-04-04T02:39:32.412Z,0.00
2023-04-04T02:40:32.402Z,0.00
2023-04-04T02:41:32.425Z,0.00
2023-04-04T02:42:32.419Z,0.00
2023-04-04T02:43:32.392Z,0.00
2023-04-04T02:44:32.359Z,0.00
2023-04-04T02:45:32.358Z,0.00
2023-04-04T02:46:32.386Z,0.00
2023-04-04T02:47:32.383Z,0.00
2023-04-04T02:48:32.319Z,0.00
2023-04-04T02:49:32.327Z,0.00
2023-04-04T02:50:32.306Z,0.00
2023-04-04T02:51:32.302Z,0.00
2023-04-04T02:52:32.294Z,0.00
2023-04-04T02:53:32.293Z,0.00
2023-04-04T02:54:32.328Z,0.00
2023-04-04T02:55:32.259Z,0.00
2023-04-04T02:56:32.257Z,0.00
2023-04-04T02:57:32.272Z,0.00
2023-04-04T02:58:32.237Z,0.00
2023-04-04T02:59:32.301Z,0.00
2023-04-04T03:00:32.245Z,0.00
2023-04-04T03:01:32.325Z,0.00
2023-04-04T03:02:32.416Z,0.00
2023-04-04T03:03:32.318Z,0.00
2023-04-04T03:04:32.211Z,0.00
2023-04-04T03:05:32.185Z,0.00
2023-04-04T03:06:32.169Z,0.00
2023-04-04T03:07:32.149Z,0.00
2023-04-04T03:08:32.145Z,0.00
2023-04-04T03:09:32.139Z,0.00
2023-04-04T03:10:32.372Z,0.00
2023-04-04T03:11:32.149Z,0.00
2023-04-04T03:12:32.283Z,0.00
2023-04-04T03:13:32.093Z,0.00
2023-04-04T03:14:32.104Z,0.00
2023-04-04T03:15:32.077Z,0.00
2023-04-04T03:16:32.138Z,0.00
2023-04-04T03:17:32.117Z,0.00
2023-04-04T03:18:32.069Z,0.00
2023-04-04T03:19:32.034Z,0.00
2023-04-04T03:20:32.046Z,0.00
2023-04-04T03:21:32.039Z,0.00
2023-04-04T03:22:31.998Z,0.00
2023-04-04T03:23:32.025Z,0.00
2023-04-04T03:24:32.012Z,0.00
2023-04-04T03:25:31.983Z,0.00
2023-04-04T03:26:31.979Z,0.00
2023-04-04T03:27:31.968Z,0.00
2023-04-04T03:28:31.961Z,0.00
2023-04-04T03:29:31.953Z,0.00
2023-04-04T03:30:31.937Z,0.00
2023-04-04T03:31:31.989Z,0.00
2023-04-04T03:32:31.974Z,0.00
2023-04-04T03:33:31.912Z,0.00
2023-04-04T03:34:31.920Z,0.00
2023-04-04T03:35:31.945Z,0.00
2023-04-04T03:36:31.870Z,0.00
2023-04-04T03:37:31.888Z,0.00
2023-04-04T03:38:31.866Z,0.00
2023-04-04T03:39:31.865Z,0.00
2023-04-04T03:40:31.847Z,0.00
2023-04-04T03:41:31.849Z,0.00
2023-04-04T03:42:31.842Z,0.00
2023-04-04T03:43:31.850Z,0.00
2023-04-04T03:44:31.817Z,0.00
2023-04-04T03:45:31.784Z,0.00
2023-04-04T03:46:33.499Z,0.00
2023-04-04T03:47:31.803Z,0.00
2023-04-04T03:48:31.783Z,0.00
2023-04-04T03:49:31.771Z,0.00
2023-04-04T03:50:31.760Z,0.00
2023-04-04T03:51:31.754Z,0.00
2023-04-04T03:52:31.722Z,0.00
2023-04-04T03:53:31.725Z,0.00
2023-04-04T03:54:31.764Z,0.00
2023-04-04T03:55:31.712Z,0.00
2023-04-04T03:56:31.694Z,0.00
2023-04-04T03:57:31.706Z,0.00
2023-04-04T03:58:31.690Z,0.00
2023-04-04T03:59:31.675Z,0.00
2023-04-04T04:00:31.651Z,0.00
2023-04-04T04:01:31.661Z,0.00
2023-04-04T04:02:31.703Z,0.00
2023-04-04T04:03:31.712Z,0.00
2023-04-04T04:04:31.665Z,0.00
2023-04-04T04:05:31.608Z,0.00
2023-04-04T04:06:31.586Z,0.00
2023-04-04T04:07:31.588Z,0.00
2023-04-04T04:08:31.582Z,0.00
2023-04-04T04:09:31.596Z,0.00
2023-04-04T04:10:31.556Z,0.00
2023-04-04T04:11:31.535Z,0.00
2023-04-04T04:12:31.528Z,0.00
2023-04-04T04:13:31.529Z,0.00
2023-04-04T04:14:31.526Z,0.00
2023-04-04T04:15:31.519Z,0.00
2023-04-04T04:16:31.601Z,0.00
2023-04-04T04:17:31.533Z,0.00
2023-04-04T04:18:31.470Z,0.00
2023-04-04T04:19:31.468Z,0.00
2023-04-04T04:20:31.462Z,0.00
2023-04-04T04:21:31.492Z,0.00
2023-04-04T04:22:31.423Z,0.00
2023-04-04T04:23:31.425Z,0.00
2023-04-04T04:24:31.425Z,0.00
2023-04-04T04:25:31.439Z,0.00
2023-04-04T04:26:31.397Z,0.00
2023-04-04T04:27:31.416Z,0.00
2023-04-04T04:28:33.222Z,0.00
2023-04-04T04:29:31.424Z,0.00
2023-04-04T04:30:31.367Z,0.00
2023-04-04T04:31:31.411Z,0.00
2023-04-04T04:32:31.350Z,0.00
2023-04-04T04:33:31.334Z,0.00
2023-04-04T04:34:31.323Z,0.00
2023-04-04T04:35:31.307Z,5.63
2023-04-04T04:36:31.318Z,5.63
2023-04-04T04:37:31.286Z,5.63
2023-04-04T04:38:31.271Z,5.63
2023-04-04T04:39:31.272Z,5.63
2023-04-04T04:40:31.283Z,5.63
2023-04-04T04:41:31.254Z,5.63
2023-04-04T04:42:31.272Z,5.63
2023-04-04T04:43:31.261Z,5.63
2023-04-04T04:44:31.237Z,5.63
2023-04-04T04:45:31.215Z,11.25
2023-04-04T04:46:31.274Z,11.25
2023-04-04T04:47:31.240Z,11.25
2023-04-04T04:48:31.209Z,11.25
2023-04-04T04:49:31.184Z,11.25
2023-04-04T04:50:31.166Z,11.25
2023-04-04T04:51:31.147Z,11.25
2023-04-04T04:52:31.170Z,11.25
2023-04-04T04:53:31.160Z,16.88
2023-04-04T04:54:31.123Z,16.88
2023-04-04T04:55:31.166Z,16.88
2023-04-04T04:56:31.171Z,16.88
2023-04-04T04:57:31.102Z,16.88
2023-04-04T04:58:31.102Z,16.88
2023-04-04T04:59:31.173Z,16.88
2023-04-04T05:00:31.069Z,22.50
2023-04-04T05:01:31.134Z,22.50
2023-04-04T05:02:31.213Z,22.50
2023-04-04T05:03:31.046Z,22.50
2023-04-04T05:04:31.054Z,22.50
2023-04-04T05:05:31.089Z,22.50
2023-04-04T05:06:31.024Z,22.50
2023-04-04T05:07:30.994Z,28.13
2023-04-04T05:08:30.992Z,28.13
2023-04-04T05:09:30.994Z,28.13
2023-04-04T05:10:30.973Z,28.13
2023-04-04T05:11:30.985Z,28.13
2023-04-04T05:12:31.011Z,28.13
2023-04-04T05:13:30.956Z,28.13
2023-04-04T05:14:30.936Z,33.75
2023-04-04T05:15:30.920Z,33.75
2023-04-04T05:16:30.952Z,33.75
2023-04-04T05:17:30.987Z,33.75
2023-04-04T05:18:30.926Z,33.75
2023-04-04T05:19:30.960Z,33.75
2023-04-04T05:20:30.896Z,33.75
2023-04-04T05:21:30.857Z,39.38
2023-04-04T05:22:30.868Z,39.38
2023-04-04T05:23:30.855Z,39.38
2023-04-04T05:24:30.859Z,39.38
2023-04-04T05:25:30.874Z,39.38
2023-04-04T05:26:30.821Z,39.38
2023-04-04T05:27:30.818Z,39.38
2023-04-04T05:28:30.841Z,45.00
2023-04-04T05:29:30.820Z,45.00
2023-04-04T05:30:30.805Z,45.00
2023-04-04T05:31:30.828Z,45.00
2023-04-04T05:32:30.892Z,45.00
2023-04-04T05:33:30.753Z,45.00
2023-04-04T05:34:30.764Z,45.00
2023-04-04T05:35:30.794Z,45.00
2023-04-04T05:36:30.798Z,50.63
2023-04-04T05:37:31.385Z,50.63
2023-04-04T05:38:30.706Z,50.63
2023-04-04T05:39:30.717Z,50.63
2023-04-04T05:40:30.679Z,50.63
2023-04-04T05:41:30.701Z,50.63
2023-04-04T05:42:30.687Z,50.63
2023-04-04T05:43:30.755Z,50.63
2023-04-04T05:44:30.719Z,56.25
2023-04-04T05:45:30.642Z,56.25
2023-04-04T05:46:37.888Z,56.25
2023-04-04T05:48:34.615Z,56.25
2023-04-04T05:49:34.596Z,56.25
2023-04-04T05:51:38.636Z,61.88
2023-04-04T05:52:38.551Z,61.88
2023-04-04T05:54:42.575Z,61.88
2023-04-04T05:55:42.587Z,61.88
2023-04-04T05:57:35.453Z,61.88
2023-04-04T05:58:35.414Z,67.50
2023-04-04T06:00:39.637Z,67.50
2023-04-04T06:01:39.375Z,67.50
2023-04-04T06:03:43.431Z,67.50
2023-04-04T06:04:43.360Z,67.50
2023-04-04T06:06:47.345Z,73.13
2023-04-04T06:07:47.359Z,73.13
2023-04-04T06:09:51.297Z,73.13
2023-04-04T06:10:51.270Z,73.13
2023-04-04T06:12:55.282Z,78.75
2023-04-04T06:13:55.328Z,78.75
2023-04-04T06:15:59.248Z,78.75
2023-04-04T06:16:59.226Z,78.75
2023-04-04T06:19:03.234Z,78.75
2023-04-04T06:20:03.197Z,84.38
2023-04-04T06:22:07.750Z,84.38
2023-04-04T06:23:07.344Z,84.38
2023-04-04T06:25:11.327Z,90.00
2023-04-04T06:26:11.329Z,90.00
2023-04-04T06:28:15.326Z,90.00
2023-04-04T06:29:15.311Z,95.63
2023-04-04T06:31:19.333Z,95.63
2023-04-04T06:32:19.283Z,101.25
2023-04-04T06:34:23.243Z,106.88
2023-04-04T06:35:23.247Z,129.38
2023-04-04T06:37:16.151Z,1316.25
2023-04-04T06:38:16.118Z,1935.00
2023-04-04T06:40:20.107Z,2081.25
2023-04-04T06:41:20.098Z,2103.75
2023-04-04T06:43:24.111Z,1935.00
2023-04-04T06:44:24.082Z,1856.25
2023-04-04T06:46:28.149Z,1929.38
2023-04-04T06:47:28.139Z,2075.63
2023-04-04T06:49:32.100Z,1974.38
2023-04-04T06:50:32.062Z,1783.13
2023-04-04T06:51:32.068Z,1777.50
2023-04-04T06:52:32.118Z,1535.63
2023-04-04T06:53:32.067Z,1479.38
2023-04-04T06:54:32.069Z,1816.88
2023-04-04T06:55:32.071Z,1923.75
2023-04-04T06:56:32.072Z,1963.13
2023-04-04T06:57:32.078Z,1946.25
2023-04-04T06:58:32.078Z,1991.25
2023-04-04T06:59:32.146Z,1968.75
2023-04-04T07:00:32.113Z,1957.50
2023-04-04T07:01:32.163Z,2098.13
2023-04-04T07:02:32.185Z,2148.75
2023-04-04T07:03:32.170Z,2047.50
2023-04-04T07:04:32.116Z,1895.63
2023-04-04T07:05:32.181Z,1833.75
2023-04-04T07:06:32.146Z,2047.50
2023-04-04T07:07:32.134Z,2109.38
2023-04-04T07:08:35.945Z,2075.63
2023-04-04T07:09:32.174Z,1980.00
2023-04-04T07:10:32.155Z,1980.00
2023-04-04T07:11:32.174Z,2075.63
2023-04-04T07:12:32.165Z,2182.50
2023-04-04T07:13:32.184Z,2098.13
2023-04-04T07:14:32.177Z,2002.50
2023-04-04T07:15:32.198Z,2047.50
2023-04-04T07:16:32.252Z,2098.13
2023-04-04T07:17:32.223Z,2075.63
2023-04-04T07:18:32.241Z,1946.25
2023-04-04T07:19:32.235Z,2109.38
2023-04-04T07:20:32.250Z,2182.50
2023-04-04T07:21:32.248Z,2103.75
2023-04-04T07:22:32.253Z,2103.75
2023-04-04T07:23:32.259Z,2205.00
2023-04-04T07:24:32.276Z,2131.88
2023-04-04T07:25:32.282Z,2064.38
2023-04-04T07:26:32.282Z,1957.50
2023-04-04T07:27:32.307Z,2143.13
2023-04-04T07:28:32.327Z,2081.25
2023-04-04T07:29:32.322Z,1816.88
2023-04-04T07:30:32.330Z,1957.50
2023-04-04T07:31:32.378Z,2233.13
2023-04-04T07:32:32.428Z,2053.13
2023-04-04T07:33:32.365Z,2058.75
2023-04-04T07:34:32.391Z,2036.25
2023-04-04T07:35:32.403Z,2047.50
2023-04-04T07:36:32.382Z,2103.75
2023-04-04T07:37:32.393Z,388.13
2023-04-04T07:38:32.410Z,1192.50
2023-04-04T07:39:32.442Z,2098.13
2023-04-04T07:40:32.445Z,2008.13
2023-04-04T07:41:32.434Z,1968.75
2023-04-04T07:42:32.468Z,1951.88
2023-04-04T07:43:32.453Z,1704.38
2023-04-04T07:44:32.460Z,1681.88
2023-04-04T07:45:32.484Z,1597.50
2023-04-04T07:46:32.543Z,1535.63
2023-04-04T07:47:32.595Z,1468.13
2023-04-04T07:48:32.509Z,1271.25
2023-04-04T07:49:32.511Z,1282.50
2023-04-04T07:50:32.544Z,1282.50
2023-04-04T07:51:32.560Z,1175.63
2023-04-04T07:52:32.556Z,1080.00
2023-04-04T07:53:32.569Z,1068.75
2023-04-04T07:54:32.564Z,1411.88
2023-04-04T07:55:32.603Z,1485.00
2023-04-04T07:56:32.672Z,1406.25
2023-04-04T07:57:32.604Z,1378.13
2023-04-04T07:58:32.621Z,1271.25
2023-04-04T07:59:32.670Z,1366.88
2023-04-04T08:00:32.634Z,1406.25
2023-04-04T08:01:32.644Z,1378.13
2023-04-04T08:02:32.725Z,1271.25
2023-04-04T08:03:32.868Z,1260.00
2023-04-04T08:04:32.732Z,1288.13
2023-04-04T08:05:32.716Z,1170.00
2023-04-04T08:06:32.697Z,1147.50
2023-04-04T08:07:32.716Z,1243.13
2023-04-04T08:08:32.737Z,1305.00
2023-04-04T08:09:32.729Z,618.75
2023-04-04T08:10:32.743Z,1282.50
2023-04-04T08:11:32.755Z,1209.38
2023-04-04T08:12:32.802Z,1192.50
2023-04-04T08:13:32.777Z,1220.63
2023-04-04T08:14:32.796Z,1209.38
2023-04-04T08:15:32.801Z,995.63
2023-04-04T08:16:32.979Z,697.50
2023-04-04T08:17:32.868Z,545.63
2023-04-04T08:18:32.834Z,506.25
2023-04-04T08:19:32.846Z,483.75
2023-04-04T08:20:32.872Z,466.88
2023-04-04T08:21:32.924Z,450.00
2023-04-04T08:22:32.913Z,450.00
2023-04-04T08:23:32.894Z,427.50
2023-04-04T08:24:32.902Z,421.88
2023-04-04T08:25:32.915Z,410.63
2023-04-04T08:26:32.927Z,393.75
2023-04-04T08:27:32.963Z,382.50
2023-04-04T08:28:32.976Z,371.25
2023-04-04T08:29:33.320Z,360.00
2023-04-04T08:30:32.976Z,348.75
2023-04-04T08:31:33.014Z,343.13
2023-04-04T08:32:32.984Z,326.25
2023-04-04T08:33:44.627Z,315.00
2023-04-04T08:34:33.024Z,309.38
2023-04-04T08:35:33.018Z,298.13
2023-04-04T08:36:33.009Z,286.88
2023-04-04T08:37:33.022Z,286.88
2023-04-04T08:38:33.014Z,270.00
2023-04-04T08:39:33.028Z,264.38
2023-04-04T08:40:34.354Z,258.75
2023-04-04T08:41:33.064Z,253.13
2023-04-04T08:42:33.038Z,247.50
2023-04-04T08:43:33.037Z,241.88
2023-04-04T08:44:33.039Z,241.88
2023-04-04T08:45:33.051Z,236.25
2023-04-04T08:46:33.132Z,236.25
2023-04-04T08:47:33.068Z,219.38
2023-04-04T08:48:33.042Z,219.38
2023-04-04T08:49:33.043Z,202.50
2023-04-04T08:50:33.053Z,219.38
2023-04-04T08:51:33.077Z,219.38
2023-04-04T08:52:33.045Z,208.13
2023-04-04T08:53:33.079Z,202.50
2023-04-04T08:54:33.053Z,202.50
2023-04-04T08:55:33.062Z,202.50
2023-04-04T08:56:33.193Z,196.88
2023-04-04T08:57:33.047Z,191.25
2023-04-04T08:58:33.105Z,180.00
2023-04-04T08:59:33.220Z,123.75
2023-04-04T09:00:33.055Z,118.13
2023-04-04T09:01:33.076Z,185.63
2023-04-04T09:02:33.233Z,185.63
2023-04-04T09:03:33.105Z,185.63
2023-04-04T09:04:33.034Z,180.00
2023-04-04T09:05:33.045Z,174.38
2023-04-04T09:06:33.038Z,174.38
2023-04-04T09:07:33.040Z,174.38
2023-04-04T09:08:33.036Z,180.00
2023-04-04T09:09:33.031Z,180.00
2023-04-04T09:10:33.022Z,180.00
2023-04-04T09:11:33.023Z,174.38
2023-04-04T09:12:33.035Z,163.13
2023-04-04T09:13:33.071Z,146.25
2023-04-04T09:14:33.071Z,118.13
2023-04-04T09:15:33.071Z,123.75
2023-04-04T09:16:33.120Z,135.00
2023-04-04T09:17:33.080Z,174.38
2023-04-04T09:18:33.023Z,168.75
2023-04-04T09:19:32.998Z,168.75
2023-04-04T09:20:33.256Z,180.00
2023-04-04T09:21:32.998Z,180.00
2023-04-04T09:22:32.994Z,180.00
2023-04-04T09:23:33.005Z,151.88
2023-04-04T09:24:33.062Z,157.50
2023-04-04T09:25:33.006Z,202.50
2023-04-04T09:26:32.990Z,196.88
2023-04-04T09:27:32.979Z,180.00
2023-04-04T09:28:32.993Z,202.50
2023-04-04T09:29:32.959Z,191.25
2023-04-04T09:30:32.983Z,196.88
2023-04-04T09:31:32.975Z,202.50
2023-04-04T09:32:32.973Z,202.50
2023-04-04T09:33:32.960Z,174.38
2023-04-04T09:34:32.949Z,146.25
2023-04-04T09:35:33.027Z,140.63
2023-04-04T09:36:32.947Z,140.63
2023-04-04T09:37:32.961Z,163.13
2023-04-04T09:38:32.942Z,140.63
2023-04-04T09:39:32.992Z,146.25
2023-04-04T09:40:32.983Z,146.25
2023-04-04T09:41:32.940Z,151.88
2023-04-04T09:42:32.921Z,151.88
2023-04-04T09:43:34.398Z,151.88
2023-04-04T09:44:32.935Z,151.88
2023-04-04T09:45:32.912Z,157.50
2023-04-04T09:46:32.925Z,146.25
2023-04-04T09:47:32.926Z,146.25
2023-04-04T09:48:33.082Z,151.88
2023-04-04T09:49:32.893Z,185.63
2023-04-04T09:50:32.899Z,140.63
2023-04-04T09:51:32.894Z,146.25
2023-04-04T09:52:32.876Z,146.25
2023-04-04T09:53:32.882Z,163.13
2023-04-04T09:54:33.079Z,168.75
2023-04-04T09:55:32.874Z,151.88
2023-04-04T09:56:33.249Z,191.25
2023-04-04T09:57:32.871Z,185.63
2023-04-04T09:58:32.856Z,185.63
2023-04-04T09:59:32.884Z,191.25
2023-04-04T10:00:32.853Z,146.25
2023-04-04T10:01:32.950Z,140.63
2023-04-04T10:02:32.940Z,135.00
2023-04-04T10:03:32.982Z,129.38
2023-04-04T10:04:32.917Z,123.75
2023-04-04T10:05:32.823Z,123.75
2023-04-04T10:06:32.831Z,118.13
2023-04-04T10:07:32.820Z,118.13
2023-04-04T10:08:32.857Z,112.50
2023-04-04T10:09:32.837Z,112.50
2023-04-04T10:10:32.813Z,118.13
2023-04-04T10:11:32.806Z,123.75
2023-04-04T10:12:32.819Z,123.75
2023-04-04T10:13:32.795Z,129.38
2023-04-04T10:14:32.794Z,135.00
2023-04-04T10:15:32.829Z,135.00
2023-04-04T10:16:32.784Z,140.63
2023-04-04T10:17:32.826Z,140.63
2023-04-04T10:18:32.778Z,140.63
2023-04-04T10:19:32.793Z,140.63
2023-04-04T10:20:32.770Z,146.25
2023-04-04T10:21:32.792Z,151.88
2023-04-04T10:22:32.749Z,146.25
2023-04-04T10:23:32.807Z,146.25
2023-04-04T10:24:32.751Z,140.63
2023-04-04T10:25:32.752Z,174.38
2023-04-04T10:26:32.767Z,146.25
2023-04-04T10:27:32.752Z,135.00
2023-04-04T10:28:32.755Z,135.00
2023-04-04T10:29:32.809Z,129.38
2023-04-04T10:30:32.715Z,123.75
2023-04-04T10:31:32.749Z,123.75
2023-04-04T10:32:32.776Z,157.50
2023-04-04T10:33:32.737Z,146.25
2023-04-04T10:34:32.702Z,151.88
2023-04-04T10:35:32.784Z,146.25
2023-04-04T10:36:32.728Z,146.25
2023-04-04T10:37:32.766Z,151.88
2023-04-04T10:38:32.689Z,157.50
2023-04-04T10:39:32.671Z,168.75
2023-04-04T10:40:32.694Z,168.75
2023-04-04T10:41:32.685Z,146.25
2023-04-04T10:42:32.661Z,151.88
2023-04-04T10:43:32.661Z,129.38
2023-04-04T10:44:32.676Z,129.38
2023-04-04T10:45:32.648Z,129.38
2023-04-04T10:46:32.671Z,146.25
2023-04-04T10:47:32.835Z,146.25
2023-04-04T10:48:32.630Z,118.13
2023-04-04T10:49:32.629Z,106.88
2023-04-04T10:50:32.691Z,106.88
2023-04-04T10:51:35.329Z,112.50
2023-04-04T10:52:32.611Z,118.13
2023-04-04T10:53:32.613Z,123.75
2023-04-04T10:54:32.629Z,151.88
2023-04-04T10:55:32.605Z,151.88
2023-04-04T10:56:32.595Z,146.25
2023-04-04T10:57:32.600Z,112.50
2023-04-04T10:58:32.581Z,140.63
2023-04-04T10:59:32.674Z,140.63
2023-04-04T11:00:32.591Z,135.00
2023-04-04T11:01:32.574Z,135.00
2023-04-04T11:02:32.609Z,135.00
2023-04-04T11:03:32.565Z,135.00
2023-04-04T11:04:32.577Z,135.00
2023-04-04T11:05:32.549Z,135.00
2023-04-04T11:06:32.560Z,135.00
2023-04-04T11:07:32.542Z,146.25
2023-04-04T11:08:32.539Z,157.50
2023-04-04T11:09:32.530Z,157.50
2023-04-04T11:10:32.528Z,163.13
2023-04-04T11:11:32.523Z,135.00
2023-04-04T11:12:32.539Z,129.38
2023-04-04T11:13:32.533Z,123.75
2023-04-04T11:14:32.514Z,123.75
2023-04-04T11:15:32.508Z,123.75
2023-04-04T11:16:32.552Z,118.13
2023-04-04T11:17:32.527Z,118.13
2023-04-04T11:18:34.030Z,118.13
2023-04-04T11:19:32.490Z,112.50
2023-04-04T11:20:32.525Z,112.50
2023-04-04T11:21:32.483Z,118.13
2023-04-04T11:22:32.474Z,112.50
2023-04-04T11:23:32.472Z,112.50
2023-04-04T11:24:32.479Z,118.13
2023-04-04T11:25:32.463Z,123.75
2023-04-04T11:26:32.463Z,140.63
2023-04-04T11:27:32.483Z,146.25
2023-04-04T11:28:32.450Z,140.63
2023-04-04T11:29:32.454Z,146.25
2023-04-04T11:30:32.468Z,146.25
2023-04-04T11:31:32.506Z,106.88
2023-04-04T11:32:32.452Z,106.88
2023-04-04T11:33:32.525Z,112.50
2023-04-04T11:34:32.429Z,151.88
2023-04-04T11:35:32.412Z,157.50
2023-04-04T11:36:32.421Z,163.13
2023-04-04T11:37:32.410Z,168.75
2023-04-04T11:38:32.398Z,168.75
2023-04-04T11:39:32.410Z,180.00
2023-04-04T11:40:32.387Z,185.63
2023-04-04T11:41:32.377Z,163.13
2023-04-04T11:42:32.374Z,140.63
2023-04-04T11:43:32.369Z,168.75
2023-04-04T11:44:32.378Z,135.00
2023-04-04T11:45:32.361Z,135.00
2023-04-04T11:46:32.448Z,129.38
2023-04-04T11:47:32.402Z,129.38
2023-04-04T11:48:32.352Z,129.38
2023-04-04T11:49:32.340Z,129.38
2023-04-04T11:50:32.333Z,123.75
2023-04-04T11:51:32.356Z,118.13
2023-04-04T11:52:32.328Z,112.50
2023-04-04T11:53:32.343Z,112.50
2023-04-04T11:54:32.364Z,106.88
2023-04-04T11:55:32.328Z,106.88
2023-04-04T11:56:32.333Z,123.75
2023-04-04T11:57:32.324Z,112.50
2023-04-04T11:58:32.298Z,118.13
2023-04-04T11:59:32.346Z,157.50
2023-04-04T12:00:32.292Z,163.13
2023-04-04T12:01:32.299Z,168.75
2023-04-04T12:02:32.530Z,168.75
2023-04-04T12:03:32.481Z,174.38
2023-04-04T12:04:32.336Z,157.50
2023-04-04T12:05:32.405Z,140.63
2023-04-04T12:06:32.262Z,140.63
2023-04-04T12:07:32.259Z,140.63
2023-04-04T12:08:32.258Z,129.38
2023-04-04T12:09:32.248Z,129.38
2023-04-04T12:10:32.247Z,129.38
2023-04-04T12:11:32.250Z,123.75
2023-04-04T12:12:32.244Z,123.75
2023-04-04T12:13:32.242Z,123.75
2023-04-04T12:14:32.223Z,118.13
2023-04-04T12:15:32.219Z,123.75
2023-04-04T12:16:32.284Z,123.75
2023-04-04T12:17:32.247Z,123.75
2023-04-04T12:18:32.210Z,129.38
2023-04-04T12:19:32.212Z,129.38
2023-04-04T12:20:32.218Z,129.38
2023-04-04T12:21:32.197Z,123.75
2023-04-04T12:22:32.200Z,151.88
2023-04-04T12:23:32.173Z,129.38
2023-04-04T12:24:32.179Z,140.63
2023-04-04T12:25:32.173Z,123.75
2023-04-04T12:26:32.160Z,123.75
2023-04-04T12:27:32.161Z,123.75
2023-04-04T12:28:32.177Z,129.38
2023-04-04T12:29:32.166Z,129.38
2023-04-04T12:30:32.143Z,129.38
2023-04-04T12:31:32.168Z,135.00
2023-04-04T12:32:32.194Z,135.00
2023-04-04T12:33:32.144Z,135.00
2023-04-04T12:34:32.173Z,135.00
2023-04-04T12:35:32.118Z,146.25
2023-04-04T12:36:32.141Z,168.75
2023-04-04T12:37:32.220Z,163.13
2023-04-04T12:38:32.126Z,157.50
2023-04-04T12:39:32.102Z,140.63
2023-04-04T12:40:32.091Z,151.88
2023-04-04T12:41:32.096Z,157.50
2023-04-04T12:42:32.084Z,163.13
2023-04-04T12:43:32.072Z,157.50
2023-04-04T12:44:32.137Z,157.50
2023-04-04T12:45:32.072Z,157.50
2023-04-04T12:46:32.106Z,129.38
2023-04-04T12:47:32.132Z,129.38
2023-04-04T12:48:32.066Z,146.25
2023-04-04T12:49:32.062Z,135.00
2023-04-04T12:50:32.056Z,129.38
2023-04-04T12:51:32.043Z,118.13
2023-04-04T12:52:32.104Z,118.13
2023-04-04T12:53:32.050Z,112.50
2023-04-04T12:54:32.091Z,112.50
2023-04-04T12:55:32.025Z,112.50
2023-04-04T12:56:32.037Z,112.50
2023-04-04T12:57:32.008Z,106.88
2023-04-04T12:58:32.609Z,118.13
2023-04-04T12:59:32.301Z,101.25
2023-04-04T13:00:32.044Z,101.25
2023-04-04T13:01:32.109Z,101.25
2023-04-04T13:02:32.004Z,101.25
2023-04-04T13:03:31.988Z,95.63
2023-04-04T13:04:32.088Z,90.00
2023-04-04T13:05:31.978Z,90.00
2023-04-04T13:06:32.010Z,95.63
2023-04-04T13:07:31.962Z,95.63
2023-04-04T13:08:31.976Z,101.25
2023-04-04T13:09:32.062Z,112.50
2023-04-04T13:10:31.950Z,101.25
2023-04-04T13:11:31.943Z,106.88
2023-04-04T13:12:31.954Z,112.50
2023-04-04T13:13:31.944Z,123.75
2023-04-04T13:14:31.926Z,112.50
2023-04-04T13:15:31.927Z,123.75
2023-04-04T13:16:31.980Z,118.13
2023-04-04T13:17:31.937Z,118.13
2023-04-04T13:18:31.908Z,118.13
2023-04-04T13:19:31.943Z,118.13